sensor_id;sensor_type;location;lat;lon;timestamp;pressure;altitude;pressure_sealevel;temperature;humidity
82035;BME280;71599;49.892;18.914;2023-11-19T00:00:43;99214.94;;;-0.45;73.11
82035;BME280;71599;49.892;18.914;2023-11-19T00:06:04;99214.97;;;-0.50;73.86
82035;BME280;71599;49.892;18.914;2023-11-19T00:11:05;99211.22;;;-0.59;73.66
82035;BME280;71599;49.892;18.914;2023-11-19T00:16:08;99218.75;;;-0.56;74.13
82035;BME280;71599;49.892;18.914;2023-11-19T00:21:09;99233.53;;;-0.64;73.74
82035;BME280;71599;49.892;18.914;2023-11-19T00:26:10;99217.72;;;-0.70;73.67
82035;BME280;71599;49.892;18.914;2023-11-19T00:31:12;99208.34;;;-0.68;74.25
82035;BME280;71599;49.892;18.914;2023-11-19T00:36:13;99198.41;;;-0.67;73.85
82035;BME280;71599;49.892;18.914;2023-11-19T00:41:15;99190.38;;;-0.72;74.19
82035;BME280;71599;49.892;18.914;2023-11-19T00:46:17;99217.28;;;-0.93;74.28
82035;BME280;71599;49.892;18.914;2023-11-19T00:51:18;99201.72;;;-0.96;75.04
82035;BME280;71599;49.892;18.914;2023-11-19T00:56:19;99189.09;;;-0.85;74.90
82035;BME280;71599;49.892;18.914;2023-11-19T01:01:22;99201.69;;;-0.81;74.77
82035;BME280;71599;49.892;18.914;2023-11-19T01:06:30;99196.09;;;-0.94;74.92
82035;BME280;71599;49.892;18.914;2023-11-19T01:11:31;99204.41;;;-0.91;74.19
82035;BME280;71599;49.892;18.914;2023-11-19T01:16:33;99195.25;;;-0.90;74.87
82035;BME280;71599;49.892;18.914;2023-11-19T01:21:34;99189.34;;;-0.87;74.45
82035;BME280;71599;49.892;18.914;2023-11-19T01:26:35;99169.34;;;-1.25;75.73
82035;BME280;71599;49.892;18.914;2023-11-19T01:31:37;99171.50;;;-1.16;76.04
82035;BME280;71599;49.892;18.914;2023-11-19T01:36:38;99139.03;;;-1.15;75.73
82035;BME280;71599;49.892;18.914;2023-11-19T01:41:39;99129.75;;;-1.48;76.16
82035;BME280;71599;49.892;18.914;2023-11-19T01:46:42;99136.22;;;-1.79;77.06
82035;BME280;71599;49.892;18.914;2023-11-19T01:51:44;99119.03;;;-1.53;77.30
82035;BME280;71599;49.892;18.914;2023-11-19T01:56:46;99108.81;;;-1.51;77.63
82035;BME280;71599;49.892;18.914;2023-11-19T02:01:49;99106.94;;;-1.40;77.38
82035;BME280;71599;49.892;18.914;2023-11-19T02:06:51;99096.22;;;-1.40;77.37
82035;BME280;71599;49.892;18.914;2023-11-19T02:11:54;99060.81;;;-1.37;76.86
82035;BME280;71599;49.892;18.914;2023-11-19T02:16:57;99044.69;;;-1.32;76.59
82035;BME280;71599;49.892;18.914;2023-11-19T02:21:58;99034.25;;;-1.34;76.81
82035;BME280;71599;49.892;18.914;2023-11-19T02:27:02;99017.13;;;-1.43;76.47
82035;BME280;71599;49.892;18.914;2023-11-19T02:32:08;98996.72;;;-1.39;76.09
82035;BME280;71599;49.892;18.914;2023-11-19T02:37:09;99002.41;;;-1.45;76.84
82035;BME280;71599;49.892;18.914;2023-11-19T02:42:09;98999.41;;;-1.39;76.62
82035;BME280;71599;49.892;18.914;2023-11-19T02:47:12;98985.72;;;-1.37;76.00
82035;BME280;71599;49.892;18.914;2023-11-19T02:52:13;98972.88;;;-1.35;76.22
82035;BME280;71599;49.892;18.914;2023-11-19T02:57:14;98971.56;;;-1.43;76.28
82035;BME280;71599;49.892;18.914;2023-11-19T03:02:16;98953.66;;;-1.52;75.77
82035;BME280;71599;49.892;18.914;2023-11-19T03:07:17;98957.41;;;-1.53;75.80
82035;BME280;71599;49.892;18.914;2023-11-19T03:12:18;98958.78;;;-1.61;76.20
82035;BME280;71599;49.892;18.914;2023-11-19T03:17:21;98952.09;;;-1.69;75.57
82035;BME280;71599;49.892;18.914;2023-11-19T03:22:22;98937.13;;;-1.70;76.69
82035;BME280;71599;49.892;18.914;2023-11-19T03:27:23;98911.13;;;-1.64;75.81
82035;BME280;71599;49.892;18.914;2023-11-19T03:32:25;98909.78;;;-1.67;75.82
82035;BME280;71599;49.892;18.914;2023-11-19T03:37:26;98909.47;;;-1.60;76.22
82035;BME280;71599;49.892;18.914;2023-11-19T03:42:27;98904.06;;;-1.55;76.13
82035;BME280;71599;49.892;18.914;2023-11-19T03:47:29;98902.59;;;-1.76;76.18
82035;BME280;71599;49.892;18.914;2023-11-19T03:52:30;98864.31;;;-1.87;76.54
82035;BME280;71599;49.892;18.914;2023-11-19T03:57:31;98874.22;;;-1.87;76.41
82035;BME280;71599;49.892;18.914;2023-11-19T04:02:33;98850.97;;;-1.92;76.90
82035;BME280;71599;49.892;18.914;2023-11-19T04:07:34;98842.66;;;-1.90;76.19
82035;BME280;71599;49.892;18.914;2023-11-19T04:12:35;98838.06;;;-1.85;76.58
82035;BME280;71599;49.892;18.914;2023-11-19T04:17:38;98843.06;;;-1.68;77.45
82035;BME280;71599;49.892;18.914;2023-11-19T04:22:39;98857.22;;;-1.63;76.94
82035;BME280;71599;49.892;18.914;2023-11-19T04:27:40;98854.81;;;-1.59;76.81
82035;BME280;71599;49.892;18.914;2023-11-19T04:32:42;98850.75;;;-1.56;75.95
82035;BME280;71599;49.892;18.914;2023-11-19T04:37:43;98836.34;;;-1.66;76.54
82035;BME280;71599;49.892;18.914;2023-11-19T04:42:44;98828.00;;;-1.59;76.78
82035;BME280;71599;49.892;18.914;2023-11-19T04:47:46;98818.69;;;-1.72;76.64
82035;BME280;71599;49.892;18.914;2023-11-19T04:52:47;98807.69;;;-1.65;76.47
82035;BME280;71599;49.892;18.914;2023-11-19T04:57:48;98802.50;;;-1.56;76.69
82035;BME280;71599;49.892;18.914;2023-11-19T05:02:51;98808.97;;;-1.57;76.91
82035;BME280;71599;49.892;18.914;2023-11-19T05:07:52;98798.44;;;-1.49;76.38
82035;BME280;71599;49.892;18.914;2023-11-19T05:12:53;98774.59;;;-1.50;76.40
82035;BME280;71599;49.892;18.914;2023-11-19T05:17:55;98772.53;;;-1.58;76.31
82035;BME280;71599;49.892;18.914;2023-11-19T05:22:56;98761.38;;;-1.71;77.66
82035;BME280;71599;49.892;18.914;2023-11-19T05:27:57;98780.00;;;-1.55;77.26
82035;BME280;71599;49.892;18.914;2023-11-19T05:32:59;98776.66;;;-1.42;76.82
82035;BME280;71599;49.892;18.914;2023-11-19T05:38:00;98793.56;;;-1.42;76.19
82035;BME280;71599;49.892;18.914;2023-11-19T05:43:01;98763.75;;;-1.35;76.86
82035;BME280;71599;49.892;18.914;2023-11-19T05:48:04;98748.22;;;-1.38;77.16
82035;BME280;71599;49.892;18.914;2023-11-19T05:53:05;98760.31;;;-1.41;77.52
82035;BME280;71599;49.892;18.914;2023-11-19T05:58:06;98783.00;;;-1.28;77.29
82035;BME280;71599;49.892;18.914;2023-11-19T06:03:08;98778.06;;;-1.16;77.36
82035;BME280;71599;49.892;18.914;2023-11-19T06:08:09;98770.00;;;-1.16;77.03
82035;BME280;71599;49.892;18.914;2023-11-19T06:13:10;98768.88;;;-1.10;77.10
82035;BME280;71599;49.892;18.914;2023-11-19T06:18:12;98744.91;;;-1.01;77.10
82035;BME280;71599;49.892;18.914;2023-11-19T06:23:13;98732.22;;;-0.96;76.35
82035;BME280;71599;49.892;18.914;2023-11-19T06:28:14;98713.63;;;-0.87;76.92
82035;BME280;71599;49.892;18.914;2023-11-19T06:33:16;98688.16;;;-0.90;76.62
82035;BME280;71599;49.892;18.914;2023-11-19T06:38:17;98693.19;;;-0.83;77.02
82035;BME280;71599;49.892;18.914;2023-11-19T06:43:18;98685.53;;;-0.71;77.24
82035;BME280;71599;49.892;18.914;2023-11-19T06:48:21;98652.97;;;-0.64;76.52
82035;BME280;71599;49.892;18.914;2023-11-19T06:53:22;98656.31;;;-0.72;76.69
82035;BME280;71599;49.892;18.914;2023-11-19T06:58:23;98668.19;;;-0.79;76.37
82035;BME280;71599;49.892;18.914;2023-11-19T07:03:25;98663.84;;;-0.74;76.79
82035;BME280;71599;49.892;18.914;2023-11-19T07:08:26;98654.13;;;-0.70;77.02
82035;BME280;71599;49.892;18.914;2023-11-19T07:13:27;98647.84;;;-0.61;77.41
82035;BME280;71599;49.892;18.914;2023-11-19T07:18:29;98666.94;;;-0.44;77.26
82035;BME280;71599;49.892;18.914;2023-11-19T07:23:30;98660.25;;;-0.27;76.98
82035;BME280;71599;49.892;18.914;2023-11-19T07:28:31;98681.72;;;-0.09;76.79
82035;BME280;71599;49.892;18.914;2023-11-19T07:33:33;98659.84;;;-0.02;76.44
82035;BME280;71599;49.892;18.914;2023-11-19T07:38:34;98644.00;;;-0.17;76.42
82035;BME280;71599;49.892;18.914;2023-11-19T07:43:35;98636.50;;;-0.20;76.76
82035;BME280;71599;49.892;18.914;2023-11-19T07:48:38;98645.97;;;0.10;77.04
82035;BME280;71599;49.892;18.914;2023-11-19T07:53:39;98633.16;;;0.20;76.81
82035;BME280;71599;49.892;18.914;2023-11-19T07:58:40;98602.00;;;0.19;77.02
82035;BME280;71599;49.892;18.914;2023-11-19T08:03:42;98593.69;;;0.48;76.53
82035;BME280;71599;49.892;18.914;2023-11-19T08:08:43;98568.88;;;0.65;76.61
82035;BME280;71599;49.892;18.914;2023-11-19T08:13:44;98578.75;;;0.83;76.66
82035;BME280;71599;49.892;18.914;2023-11-19T08:18:46;98574.16;;;0.97;76.26
82035;BME280;71599;49.892;18.914;2023-11-19T08:23:47;98585.88;;;1.15;76.04
82035;BME280;71599;49.892;18.914;2023-11-19T08:28:48;98576.66;;;1.30;75.48
82035;BME280;71599;49.892;18.914;2023-11-19T08:33:51;98555.88;;;1.44;75.15
82035;BME280;71599;49.892;18.914;2023-11-19T08:38:51;98555.34;;;1.55;75.05
82035;BME280;71599;49.892;18.914;2023-11-19T08:43:52;98564.34;;;1.73;74.71
82035;BME280;71599;49.892;18.914;2023-11-19T08:48:55;98562.44;;;1.74;74.19
82035;BME280;71599;49.892;18.914;2023-11-19T08:53:56;98563.41;;;1.55;73.86
82035;BME280;71599;49.892;18.914;2023-11-19T08:58:57;98513.84;;;1.34;73.79
82035;BME280;71599;49.892;18.914;2023-11-19T09:03:59;98523.41;;;1.40;72.96
82035;BME280;71599;49.892;18.914;2023-11-19T09:09:00;98518.13;;;1.57;71.08
82035;BME280;71599;49.892;18.914;2023-11-19T09:14:01;98504.28;;;1.73;69.95
82035;BME280;71599;49.892;18.914;2023-11-19T09:19:04;98496.63;;;1.88;69.59
82035;BME280;71599;49.892;18.914;2023-11-19T09:24:05;98494.78;;;2.06;68.90
82035;BME280;71599;49.892;18.914;2023-11-19T09:29:06;98482.13;;;2.15;67.89
82035;BME280;71599;49.892;18.914;2023-11-19T09:34:08;98463.34;;;2.32;67.93
82035;BME280;71599;49.892;18.914;2023-11-19T09:39:09;98444.97;;;2.43;66.53
82035;BME280;71599;49.892;18.914;2023-11-19T09:44:10;98451.38;;;2.73;66.31
82035;BME280;71599;49.892;18.914;2023-11-19T09:49:13;98443.91;;;2.96;65.48
82035;BME280;71599;49.892;18.914;2023-11-19T09:54:15;98435.19;;;2.99;64.65
82035;BME280;71599;49.892;18.914;2023-11-19T09:59:16;98405.63;;;3.37;65.63
82035;BME280;71599;49.892;18.914;2023-11-19T10:04:19;98392.78;;;3.16;64.15
82035;BME280;71599;49.892;18.914;2023-11-19T10:09:20;98385.97;;;3.10;64.23
82035;BME280;71599;49.892;18.914;2023-11-19T10:14:23;98368.78;;;3.06;64.72
82035;BME280;71599;49.892;18.914;2023-11-19T10:19:29;98358.16;;;3.10;65.25
82035;BME280;71599;49.892;18.914;2023-11-19T10:24:34;98329.41;;;3.14;64.87
82035;BME280;71599;49.892;18.914;2023-11-19T10:29:36;98333.53;;;3.20;64.81
82035;BME280;71599;49.892;18.914;2023-11-19T10:34:38;98323.63;;;3.32;64.85
82035;BME280;71599;49.892;18.914;2023-11-19T10:39:52;98308.59;;;3.23;64.09
82035;BME280;71599;49.892;18.914;2023-11-19T10:44:53;98317.94;;;3.25;65.13
82035;BME280;71599;49.892;18.914;2023-11-19T10:49:55;98319.22;;;3.19;65.65
82035;BME280;71599;49.892;18.914;2023-11-19T10:55:00;98304.00;;;3.06;66.69
82035;BME280;71599;49.892;18.914;2023-11-19T11:00:02;98307.41;;;2.60;67.90
82035;BME280;71599;49.892;18.914;2023-11-19T11:05:07;98304.41;;;2.62;70.13
82035;BME280;71599;49.892;18.914;2023-11-19T11:10:08;98294.88;;;2.56;71.28
82035;BME280;71599;49.892;18.914;2023-11-19T11:15:11;98281.53;;;2.68;71.94
82035;BME280;71599;49.892;18.914;2023-11-19T11:20:13;98277.88;;;2.64;72.92
82035;BME280;71599;49.892;18.914;2023-11-19T11:25:28;98260.59;;;2.47;72.75
82035;BME280;71599;49.892;18.914;2023-11-19T11:30:46;98261.91;;;2.33;73.41
82035;BME280;71599;49.892;18.914;2023-11-19T11:35:57;98250.47;;;2.44;74.47
82035;BME280;71599;49.892;18.914;2023-11-19T11:41:21;98234.75;;;2.55;74.86
82035;BME280;71599;49.892;18.914;2023-11-19T11:46:53;98232.66;;;2.61;75.72
82035;BME280;71599;49.892;18.914;2023-11-19T11:52:00;98223.13;;;2.72;75.66
82035;BME280;71599;49.892;18.914;2023-11-19T11:57:03;98200.25;;;2.78;75.22
82035;BME280;71599;49.892;18.914;2023-11-19T12:02:04;98183.69;;;2.88;75.27
82035;BME280;71599;49.892;18.914;2023-11-19T12:07:12;98176.91;;;2.82;74.57
82035;BME280;71599;49.892;18.914;2023-11-19T12:12:21;98175.72;;;3.00;74.75
82035;BME280;71599;49.892;18.914;2023-11-19T12:17:48;98163.31;;;3.08;74.48
82035;BME280;71599;49.892;18.914;2023-11-19T12:22:52;98145.59;;;3.19;73.86
82035;BME280;71599;49.892;18.914;2023-11-19T12:27:53;98146.97;;;3.34;73.59
82035;BME280;71599;49.892;18.914;2023-11-19T12:32:54;98157.13;;;3.37;73.41
82035;BME280;71599;49.892;18.914;2023-11-19T12:37:56;98148.16;;;3.45;72.78
82035;BME280;71599;49.892;18.914;2023-11-19T12:42:57;98133.34;;;3.51;72.76
82035;BME280;71599;49.892;18.914;2023-11-19T12:48:04;98137.00;;;3.55;73.37
82035;BME280;71599;49.892;18.914;2023-11-19T12:53:10;98126.56;;;3.65;73.49
82035;BME280;71599;49.892;18.914;2023-11-19T12:58:27;98136.59;;;3.65;74.29
82035;BME280;71599;49.892;18.914;2023-11-19T13:03:32;98120.78;;;3.55;74.88
82035;BME280;71599;49.892;18.914;2023-11-19T13:08:37;98126.56;;;3.45;75.19
82035;BME280;71599;49.892;18.914;2023-11-19T13:14:04;98124.31;;;3.47;75.74
82035;BME280;71599;49.892;18.914;2023-11-19T13:19:05;98116.53;;;3.45;76.45
82035;BME280;71599;49.892;18.914;2023-11-19T13:24:08;98093.75;;;3.34;76.50
82035;BME280;71599;49.892;18.914;2023-11-19T13:29:09;98106.25;;;3.39;76.90
82035;BME280;71599;49.892;18.914;2023-11-19T13:34:10;98100.00;;;3.26;77.23
82035;BME280;71599;49.892;18.914;2023-11-19T13:39:13;98110.47;;;3.27;77.56
82035;BME280;71599;49.892;18.914;2023-11-19T13:44:14;98101.25;;;3.28;78.02
82035;BME280;71599;49.892;18.914;2023-11-19T13:49:14;98094.13;;;3.24;77.98
82035;BME280;71599;49.892;18.914;2023-11-19T13:54:17;98085.31;;;3.36;77.93
82035;BME280;71599;49.892;18.914;2023-11-19T13:59:18;98085.97;;;3.32;77.80
82035;BME280;71599;49.892;18.914;2023-11-19T14:04:19;98082.03;;;3.30;77.47
82035;BME280;71599;49.892;18.914;2023-11-19T14:09:22;98073.44;;;3.28;77.79
82035;BME280;71599;49.892;18.914;2023-11-19T14:14:22;98078.84;;;3.28;77.75
82035;BME280;71599;49.892;18.914;2023-11-19T14:19:24;98080.44;;;3.29;77.99
82035;BME280;71599;49.892;18.914;2023-11-19T14:24:26;98066.41;;;3.36;78.52
82035;BME280;71599;49.892;18.914;2023-11-19T14:29:27;98065.31;;;3.37;78.31
82035;BME280;71599;49.892;18.914;2023-11-19T14:34:29;98073.84;;;3.39;78.62
82035;BME280;71599;49.892;18.914;2023-11-19T14:39:31;98068.84;;;3.49;78.39
82035;BME280;71599;49.892;18.914;2023-11-19T14:44:32;98068.78;;;3.58;78.50
82035;BME280;71599;49.892;18.914;2023-11-19T14:49:34;98075.28;;;3.57;78.04
82035;BME280;71599;49.892;18.914;2023-11-19T14:54:36;98064.50;;;3.57;78.47
82035;BME280;71599;49.892;18.914;2023-11-19T14:59:37;98060.94;;;3.65;78.52
82035;BME280;71599;49.892;18.914;2023-11-19T15:04:38;98060.63;;;3.66;78.41
82035;BME280;71599;49.892;18.914;2023-11-19T15:09:41;98061.19;;;3.72;78.76
82035;BME280;71599;49.892;18.914;2023-11-19T15:14:42;98071.00;;;3.77;78.92
82035;BME280;71599;49.892;18.914;2023-11-19T15:19:43;98069.56;;;3.79;79.21
82035;BME280;71599;49.892;18.914;2023-11-19T15:24:46;98068.25;;;3.85;78.94
82035;BME280;71599;49.892;18.914;2023-11-19T15:29:47;98072.78;;;3.93;78.41
82035;BME280;71599;49.892;18.914;2023-11-19T15:34:48;98066.72;;;3.96;78.52
82035;BME280;71599;49.892;18.914;2023-11-19T15:39:50;98070.09;;;3.93;78.12
82035;BME280;71599;49.892;18.914;2023-11-19T15:44:51;98078.44;;;4.00;77.69
82035;BME280;71599;49.892;18.914;2023-11-19T15:49:52;98057.81;;;3.96;78.05
82035;BME280;71599;49.892;18.914;2023-11-19T15:54:54;98071.00;;;3.97;78.27
82035;BME280;71599;49.892;18.914;2023-11-19T15:59:56;98069.88;;;3.98;77.78
82035;BME280;71599;49.892;18.914;2023-11-19T16:04:57;98068.31;;;3.97;77.65
82035;BME280;71599;49.892;18.914;2023-11-19T16:09:59;98068.31;;;3.97;77.75
82035;BME280;71599;49.892;18.914;2023-11-19T16:15:00;98060.31;;;4.01;77.36
82035;BME280;71599;49.892;18.914;2023-11-19T16:20:02;98062.50;;;4.20;77.10
82035;BME280;71599;49.892;18.914;2023-11-19T16:25:05;98063.97;;;4.29;77.36
82035;BME280;71599;49.892;18.914;2023-11-19T16:30:07;98063.31;;;4.32;76.42
82035;BME280;71599;49.892;18.914;2023-11-19T16:35:08;98052.63;;;4.36;76.72
82035;BME280;71599;49.892;18.914;2023-11-19T16:40:14;98045.19;;;4.45;76.08
82035;BME280;71599;49.892;18.914;2023-11-19T16:45:15;98050.38;;;4.50;76.35
82035;BME280;71599;49.892;18.914;2023-11-19T16:50:17;98062.22;;;4.45;75.49
82035;BME280;71599;49.892;18.914;2023-11-19T16:55:19;98060.88;;;4.51;75.87
82035;BME280;71599;49.892;18.914;2023-11-19T17:00:20;98067.09;;;4.52;75.58
82035;BME280;71599;49.892;18.914;2023-11-19T17:05:21;98075.06;;;4.48;75.05
82035;BME280;71599;49.892;18.914;2023-11-19T17:10:24;98077.44;;;4.50;75.57
82035;BME280;71599;49.892;18.914;2023-11-19T17:15:25;98080.47;;;4.48;75.01
82035;BME280;71599;49.892;18.914;2023-11-19T17:20:26;98069.66;;;4.48;75.36
82035;BME280;71599;49.892;18.914;2023-11-19T17:25:28;98053.31;;;4.45;74.88
82035;BME280;71599;49.892;18.914;2023-11-19T17:30:31;98060.97;;;4.43;75.84
82035;BME280;71599;49.892;18.914;2023-11-19T17:35:32;98065.91;;;4.41;75.46
82035;BME280;71599;49.892;18.914;2023-11-19T17:40:35;98063.91;;;4.50;75.33
82035;BME280;71599;49.892;18.914;2023-11-19T17:45:37;98066.16;;;4.60;75.04
82035;BME280;71599;49.892;18.914;2023-11-19T17:50:38;98087.59;;;4.65;75.04
82035;BME280;71599;49.892;18.914;2023-11-19T17:55:41;98083.78;;;4.66;75.39
82035;BME280;71599;49.892;18.914;2023-11-19T18:00:42;98084.56;;;4.67;75.58
82035;BME280;71599;49.892;18.914;2023-11-19T18:05:43;98091.31;;;4.61;76.13
82035;BME280;71599;49.892;18.914;2023-11-19T18:10:46;98085.34;;;4.67;75.98
82035;BME280;71599;49.892;18.914;2023-11-19T18:15:48;98086.16;;;4.68;75.92
82035;BME280;71599;49.892;18.914;2023-11-19T18:20:49;98080.72;;;4.68;75.40
82035;BME280;71599;49.892;18.914;2023-11-19T18:25:51;98074.44;;;4.76;75.91
82035;BME280;71599;49.892;18.914;2023-11-19T18:30:52;98084.13;;;4.77;75.31
82035;BME280;71599;49.892;18.914;2023-11-19T18:35:53;98079.47;;;4.77;75.77
82035;BME280;71599;49.892;18.914;2023-11-19T18:40:55;98061.31;;;4.78;75.46
82035;BME280;71599;49.892;18.914;2023-11-19T18:45:56;98061.00;;;4.79;75.05
82035;BME280;71599;49.892;18.914;2023-11-19T18:50:57;98068.31;;;4.79;75.32
82035;BME280;71599;49.892;18.914;2023-11-19T18:56:00;98062.34;;;4.73;75.06
82035;BME280;71599;49.892;18.914;2023-11-19T19:01:01;98056.16;;;4.73;75.26
82035;BME280;71599;49.892;18.914;2023-11-19T19:06:02;98044.19;;;4.74;75.52
82035;BME280;71599;49.892;18.914;2023-11-19T19:11:05;98043.41;;;4.61;75.44
82035;BME280;71599;49.892;18.914;2023-11-19T19:16:07;98047.44;;;4.55;75.39
82035;BME280;71599;49.892;18.914;2023-11-19T19:21:08;98047.69;;;4.50;75.58
82035;BME280;71599;49.892;18.914;2023-11-19T19:26:13;98046.88;;;4.49;75.32
82035;BME280;71599;49.892;18.914;2023-11-19T19:31:14;98052.75;;;4.51;75.46
82035;BME280;71599;49.892;18.914;2023-11-19T19:36:15;98053.06;;;4.38;75.73
82035;BME280;71599;49.892;18.914;2023-11-19T19:41:18;98058.16;;;4.39;75.83
82035;BME280;71599;49.892;18.914;2023-11-19T19:46:19;98048.09;;;4.28;75.43
82035;BME280;71599;49.892;18.914;2023-11-19T19:51:20;98041.44;;;4.25;75.73
82035;BME280;71599;49.892;18.914;2023-11-19T19:56:22;98046.38;;;4.23;75.50
82035;BME280;71599;49.892;18.914;2023-11-19T20:01:23;98052.81;;;4.19;75.80
82035;BME280;71599;49.892;18.914;2023-11-19T20:06:24;98060.13;;;4.18;75.75
82035;BME280;71599;49.892;18.914;2023-11-19T20:11:29;98057.31;;;4.15;75.35
82035;BME280;71599;49.892;18.914;2023-11-19T20:16:30;98061.78;;;4.10;75.74
82035;BME280;71599;49.892;18.914;2023-11-19T20:21:31;98054.94;;;4.13;75.50
82035;BME280;71599;49.892;18.914;2023-11-19T20:26:34;98065.66;;;4.09;75.90
82035;BME280;71599;49.892;18.914;2023-11-19T20:31:39;98067.34;;;4.14;75.78
82035;BME280;71599;49.892;18.914;2023-11-19T20:36:40;98067.19;;;4.10;75.59
82035;BME280;71599;49.892;18.914;2023-11-19T20:41:43;98071.97;;;4.14;76.10
82035;BME280;71599;49.892;18.914;2023-11-19T20:46:44;98075.78;;;4.13;75.77
82035;BME280;71599;49.892;18.914;2023-11-19T20:51:45;98061.13;;;4.14;76.21
82035;BME280;71599;49.892;18.914;2023-11-19T20:56:47;98067.91;;;4.20;75.93
82035;BME280;71599;49.892;18.914;2023-11-19T21:01:49;98062.84;;;4.18;76.05
82035;BME280;71599;49.892;18.914;2023-11-19T21:06:50;98060.84;;;4.27;76.27
82035;BME280;71599;49.892;18.914;2023-11-19T21:11:53;98064.91;;;4.33;76.70
82035;BME280;71599;49.892;18.914;2023-11-19T21:16:54;98065.00;;;4.37;76.82
82035;BME280;71599;49.892;18.914;2023-11-19T21:21:54;98073.38;;;4.44;76.74
82035;BME280;71599;49.892;18.914;2023-11-19T21:26:57;98066.28;;;4.51;76.74
82035;BME280;71599;49.892;18.914;2023-11-19T21:31:58;98061.44;;;4.57;76.27
82035;BME280;71599;49.892;18.914;2023-11-19T21:36:59;98062.56;;;4.56;76.89
82035;BME280;71599;49.892;18.914;2023-11-19T21:42:01;98060.44;;;4.62;76.67
82035;BME280;71599;49.892;18.914;2023-11-19T21:47:02;98068.22;;;4.63;76.54
82035;BME280;71599;49.892;18.914;2023-11-19T21:52:04;98057.81;;;4.65;76.14
82035;BME280;71599;49.892;18.914;2023-11-19T21:57:06;98057.72;;;4.62;76.71
82035;BME280;71599;49.892;18.914;2023-11-19T22:02:07;98055.47;;;4.64;76.26
82035;BME280;71599;49.892;18.914;2023-11-19T22:07:08;98061.31;;;4.66;76.49
82035;BME280;71599;49.892;18.914;2023-11-19T22:12:10;98065.75;;;4.70;76.25
82035;BME280;71599;49.892;18.914;2023-11-19T22:17:12;98053.91;;;4.75;76.14
82035;BME280;71599;49.892;18.914;2023-11-19T22:22:13;98064.41;;;4.76;75.89
82035;BME280;71599;49.892;18.914;2023-11-19T22:27:15;98078.94;;;4.84;76.03
82035;BME280;71599;49.892;18.914;2023-11-19T22:32:16;98053.34;;;4.81;75.82
82035;BME280;71599;49.892;18.914;2023-11-19T22:37:17;98058.06;;;4.84;75.69
82035;BME280;71599;49.892;18.914;2023-11-19T22:42:19;98049.84;;;4.81;75.75
82035;BME280;71599;49.892;18.914;2023-11-19T22:47:20;98041.03;;;4.84;75.55
82035;BME280;71599;49.892;18.914;2023-11-19T22:52:21;98047.00;;;4.89;75.64
82035;BME280;71599;49.892;18.914;2023-11-19T22:57:23;98030.97;;;4.97;75.72
82035;BME280;71599;49.892;18.914;2023-11-19T23:02:24;98040.66;;;5.10;75.18
82035;BME280;71599;49.892;18.914;2023-11-19T23:07:25;98043.94;;;5.15;75.15
82035;BME280;71599;49.892;18.914;2023-11-19T23:12:28;98053.53;;;5.13;75.88
82035;BME280;71599;49.892;18.914;2023-11-19T23:17:28;98062.22;;;5.18;75.89
82035;BME280;71599;49.892;18.914;2023-11-19T23:22:29;98064.22;;;5.21;75.60
82035;BME280;71599;49.892;18.914;2023-11-19T23:27:32;98070.44;;;5.22;75.81
82035;BME280;71599;49.892;18.914;2023-11-19T23:32:33;98065.72;;;5.19;75.44
82035;BME280;71599;49.892;18.914;2023-11-19T23:37:34;98055.78;;;5.23;76.04
82035;BME280;71599;49.892;18.914;2023-11-19T23:42:37;98054.53;;;5.20;75.71
82035;BME280;71599;49.892;18.914;2023-11-19T23:47:38;98054.97;;;5.22;76.08
82035;BME280;71599;49.892;18.914;2023-11-19T23:52:39;98054.97;;;5.22;76.05
82035;BME280;71599;49.892;18.914;2023-11-19T23:57:41;98058.81;;;5.21;76.73
